createdAt,value
2018-12-04T00:01:48.731Z,96.72
2018-12-04T00:02:58.983Z,96.72
2018-12-04T00:07:06.542Z,97.03
2018-12-04T00:09:19.747Z,96.52
2018-12-04T00:10:30.124Z,96.52
2018-12-04T00:11:29.619Z,96.62
2018-12-04T00:12:18.109Z,96.52
2018-12-04T00:15:38.686Z,96.93
2018-12-04T00:18:04.043Z,96.93
2018-12-04T00:24:50.996Z,96.93
2018-12-04T00:26:02.911Z,96.93
2018-12-04T00:29:06.735Z,96.52
2018-12-04T00:30:17.691Z,96.42
2018-12-04T00:31:07.411Z,96.52
2018-12-04T00:32:07.374Z,96.62
2018-12-04T00:33:15.333Z,96.52
2018-12-04T00:35:28.426Z,96.93
2018-12-04T00:36:38.102Z,97.14
2018-12-04T00:39:37.491Z,97.03
2018-12-04T00:43:44.505Z,97.86
2018-12-04T00:44:56.046Z,97.86
2018-12-04T00:46:16.779Z,98.06
2018-12-04T00:46:55.986Z,97.86
2018-12-04T00:51:11.790Z,97.65
2018-12-04T00:52:11.627Z,97.34
2018-12-04T00:53:19.313Z,97.75
2018-12-04T00:58:51.315Z,97.14
2018-12-04T01:00:02.505Z,97.03
2018-12-04T01:01:00.699Z,97.14
2018-12-04T01:02:00.932Z,97.55
2018-12-04T01:03:01.709Z,97.03
2018-12-04T01:06:08.588Z,96.68
2018-12-04T01:07:18.328Z,96.72
2018-12-04T01:08:17.326Z,96.68
2018-12-04T01:09:18.997Z,96.31
2018-12-04T01:10:23.056Z,96.83
2018-12-04T01:11:08.406Z,96.21
2018-12-04T01:12:09.217Z,95.90
2018-12-04T01:13:08.215Z,96.06
2018-12-04T01:14:20.424Z,96.27
2018-12-04T01:15:10.086Z,96.17
2018-12-04T01:18:18.390Z,96.06
2018-12-04T01:19:31.268Z,95.86
2018-12-04T01:20:18.253Z,95.03
2018-12-04T01:21:19.171Z,95.24
2018-12-04T01:22:18.225Z,95.09
2018-12-04T01:23:18.232Z,94.83
2018-12-04T01:24:18.210Z,94.78
2018-12-04T01:25:18.239Z,94.68
2018-12-04T01:26:19.183Z,94.68
2018-12-04T01:27:18.229Z,94.89
2018-12-04T01:28:30.291Z,95.09
2018-12-04T01:29:18.232Z,94.68
2018-12-04T01:30:29.687Z,94.99
2018-12-04T01:31:28.775Z,94.27
2018-12-04T01:32:28.984Z,94.48
2018-12-04T01:34:32.284Z,94.58
2018-12-04T01:35:45.321Z,94.37
2018-12-04T01:36:43.915Z,94.27
2018-12-04T01:37:32.249Z,94.37
2018-12-04T01:38:43.434Z,93.76
2018-12-04T01:39:33.170Z,93.76
2018-12-04T01:40:44.337Z,94.17
2018-12-04T01:41:42.985Z,94.17
2018-12-04T01:42:44.273Z,94.27
2018-12-04T01:44:46.739Z,94.27
2018-12-04T01:46:58.264Z,93.86
2018-12-04T01:47:57.798Z,93.96
2018-12-04T01:49:07.378Z,93.76
2018-12-04T01:50:09.146Z,94.17
2018-12-04T01:51:06.675Z,94.17
2018-12-04T01:53:59.026Z,93.96
2018-12-04T01:55:09.016Z,94.27
2018-12-04T01:56:10.050Z,94.17
2018-12-04T01:57:07.089Z,94.07
2018-12-04T01:58:07.238Z,94.27
2018-12-04T01:59:07.110Z,93.44
2018-12-04T02:01:14.599Z,94.37
2018-12-04T02:02:14.229Z,94.27
2018-12-04T02:03:14.194Z,94.62
2018-12-04T02:04:26.032Z,94.52
2018-12-04T02:05:26.395Z,94.37
2018-12-04T02:06:14.178Z,94.62
2018-12-04T02:08:26.865Z,94.31
2018-12-04T02:10:36.962Z,94.21
2018-12-04T02:14:46.782Z,95.03
2018-12-04T02:16:20.045Z,95.09
2018-12-04T02:16:45.791Z,94.68
2018-12-04T02:17:55.605Z,94.21
2018-12-04T02:18:56.488Z,94.48
2018-12-04T02:19:54.714Z,94.52
2018-12-04T02:22:11.189Z,94.48
2018-12-04T02:23:11.152Z,94.52
2018-12-04T02:26:10.454Z,94.27
2018-12-04T02:27:10.284Z,94.31
2018-12-04T02:28:21.013Z,94.37
2018-12-04T02:29:10.304Z,94.07
2018-12-04T02:30:38.212Z,94.27
2018-12-04T02:31:20.246Z,93.96
2018-12-04T02:34:06.822Z,94.48
2018-12-04T02:36:17.911Z,94.11
2018-12-04T02:37:27.055Z,94.31
2018-12-04T02:38:17.035Z,93.76
2018-12-04T02:39:27.529Z,93.86
2018-12-04T02:40:28.025Z,93.44
2018-12-04T02:43:15.589Z,92.83
2018-12-04T02:44:27.155Z,92.93
2018-12-04T02:45:15.556Z,92.57
2018-12-04T02:46:24.126Z,92.97
2018-12-04T02:47:26.309Z,92.93
2018-12-04T02:48:15.383Z,92.87
2018-12-04T02:49:24.201Z,92.16
2018-12-04T02:50:24.086Z,91.95
2018-12-04T02:51:15.351Z,92.01
2018-12-04T02:52:26.223Z,92.32
2018-12-04T02:53:27.825Z,91.91
2018-12-04T02:56:14.787Z,91.91
2018-12-04T02:57:23.223Z,91.80
2018-12-04T02:58:13.652Z,92.16
2018-12-04T02:59:13.775Z,92.21
2018-12-04T03:00:32.989Z,92.52
2018-12-04T03:01:13.567Z,92.21
2018-12-04T03:02:13.578Z,92.05
2018-12-04T03:03:23.016Z,91.91
2018-12-04T03:04:13.521Z,92.21
2018-12-04T03:05:14.372Z,92.11
2018-12-04T03:06:15.270Z,92.11
2018-12-04T03:07:13.540Z,92.21
2018-12-04T03:08:14.564Z,92.52
2018-12-04T03:09:13.456Z,92.32
2018-12-04T03:10:14.467Z,92.25
2018-12-04T03:11:14.439Z,92.42
2018-12-04T03:12:13.409Z,92.52
2018-12-04T03:13:13.397Z,92.32
2018-12-04T03:14:13.390Z,93.14
2018-12-04T03:15:14.316Z,92.73
2018-12-04T03:16:15.371Z,92.97
2018-12-04T03:17:13.353Z,92.83
2018-12-04T03:18:13.344Z,92.83
2018-12-04T03:19:13.330Z,93.04
2018-12-04T03:20:13.323Z,93.04
2018-12-04T03:21:13.321Z,92.42
2018-12-04T03:22:13.318Z,93.04
2018-12-04T03:23:13.287Z,92.63
2018-12-04T03:24:13.274Z,92.93
2018-12-04T03:25:24.092Z,93.14
2018-12-04T03:26:23.078Z,93.29
2018-12-04T03:27:13.295Z,93.35
2018-12-04T03:28:13.962Z,92.93
2018-12-04T03:29:13.430Z,93.35
2018-12-04T03:30:13.228Z,93.96
2018-12-04T03:31:13.214Z,93.76
2018-12-04T03:32:13.940Z,93.96
2018-12-04T03:33:13.192Z,94.68
2018-12-04T03:34:13.171Z,94.52
2018-12-04T03:35:13.189Z,94.62
2018-12-04T03:36:13.140Z,95.03
2018-12-04T03:37:13.890Z,95.14
2018-12-04T03:38:24.551Z,96.06
2018-12-04T03:41:11.140Z,95.96
2018-12-04T03:42:23.026Z,96.47
2018-12-04T03:43:21.408Z,96.52
2018-12-04T03:44:21.881Z,96.52
2018-12-04T03:49:02.300Z,96.06
2018-12-04T03:50:02.070Z,96.00
2018-12-04T03:51:02.040Z,96.42
2018-12-04T03:52:02.011Z,95.65
2018-12-04T03:53:02.892Z,95.96
2018-12-04T03:54:01.922Z,95.86
2018-12-04T03:55:03.124Z,95.24
2018-12-04T03:56:02.637Z,95.14
2018-12-04T03:57:12.760Z,95.14
2018-12-04T03:58:02.693Z,95.24
2018-12-04T03:59:10.558Z,95.24
2018-12-04T04:00:01.963Z,95.14
2018-12-04T04:01:10.689Z,95.18
2018-12-04T04:03:47.071Z,95.75
2018-12-04T04:04:48.071Z,95.75
2018-12-04T04:05:48.815Z,95.55
2018-12-04T04:06:58.598Z,95.96
2018-12-04T04:10:50.228Z,96.52
2018-12-04T04:11:50.984Z,96.93
2018-12-04T04:12:51.063Z,96.83
2018-12-04T04:15:44.052Z,96.06
2018-12-04T04:16:13.516Z,96.11
2018-12-04T04:17:15.484Z,95.70
2018-12-04T04:18:23.960Z,96.52
2018-12-04T04:19:22.380Z,96.42
2018-12-04T04:20:27.128Z,96.31
2018-12-04T04:21:25.546Z,96.00
2018-12-04T04:22:29.485Z,96.52
2018-12-04T04:23:12.643Z,96.00
2018-12-04T04:24:12.664Z,95.45
2018-12-04T04:27:09.510Z,95.65
2018-12-04T04:29:22.774Z,96.27
2018-12-04T04:30:48.025Z,95.80
2018-12-04T04:31:23.126Z,95.90
2018-12-04T04:32:23.317Z,95.18
2018-12-04T04:33:23.150Z,94.77
2018-12-04T04:34:22.803Z,94.56
2018-12-04T04:35:23.132Z,94.67
2018-12-04T04:37:41.215Z,95.28
2018-12-04T04:38:40.308Z,94.67
2018-12-04T04:39:40.331Z,94.77
2018-12-04T04:40:40.274Z,94.56
2018-12-04T04:41:52.070Z,94.77
2018-12-04T04:42:40.308Z,94.87
2018-12-04T04:43:40.191Z,94.77
2018-12-04T04:44:41.333Z,95.28
2018-12-04T04:45:44.852Z,95.28
2018-12-04T04:46:40.469Z,95.28
2018-12-04T04:47:40.726Z,95.28
2018-12-04T04:48:50.862Z,95.18
2018-12-04T04:49:44.784Z,95.28
2018-12-04T04:50:50.338Z,95.28
2018-12-04T04:51:55.041Z,95.28
2018-12-04T04:52:50.579Z,95.28
2018-12-04T04:53:40.885Z,95.70
2018-12-04T04:54:40.858Z,95.59
2018-12-04T04:55:50.520Z,95.28
2018-12-04T04:56:50.187Z,95.39
2018-12-04T04:57:48.763Z,95.18
2018-12-04T05:00:21.838Z,95.28
2018-12-04T05:01:33.364Z,95.39
2018-12-04T05:03:45.076Z,95.28
2018-12-04T05:04:46.623Z,95.28
2018-12-04T05:05:56.004Z,95.39
2018-12-04T05:06:58.906Z,95.90
2018-12-04T05:07:55.490Z,96.31
2018-12-04T05:08:53.680Z,95.90
2018-12-04T05:09:54.762Z,95.80
2018-12-04T05:10:45.300Z,95.18
2018-12-04T05:12:00.873Z,93.99
2018-12-04T05:12:45.136Z,93.01
2018-12-04T05:13:58.891Z,93.21
2018-12-04T05:17:55.165Z,95.73
2018-12-04T05:19:41.772Z,95.05
2018-12-04T05:20:42.535Z,95.25
2018-12-04T05:21:42.593Z,95.46
2018-12-04T05:22:41.357Z,96.39
2018-12-04T05:23:42.408Z,96.08
2018-12-04T05:24:41.314Z,96.70
2018-12-04T05:25:53.965Z,96.53
2018-12-04T05:26:43.234Z,96.84
2018-12-04T05:27:41.417Z,96.70
2018-12-04T05:28:46.153Z,96.49
2018-12-04T05:29:52.672Z,97.21
2018-12-04T05:32:24.864Z,97.63
2018-12-04T05:33:34.723Z,97.31
2018-12-04T05:34:26.876Z,97.52
2018-12-04T05:35:17.763Z,97.42
2018-12-04T05:36:19.285Z,97.11
2018-12-04T05:38:52.551Z,96.44
2018-12-04T05:39:46.097Z,96.53
2018-12-04T05:41:02.462Z,96.58
2018-12-04T05:41:45.201Z,96.95
2018-12-04T05:44:15.625Z,96.79
2018-12-04T05:45:15.070Z,96.48
2018-12-04T05:46:15.011Z,96.58
2018-12-04T05:47:14.888Z,97.09
2018-12-04T05:49:42.975Z,96.73
2018-12-04T05:52:07.173Z,97.45
2018-12-04T05:53:22.357Z,97.45
2018-12-04T05:55:58.209Z,97.34
2018-12-04T05:58:15.366Z,95.74
2018-12-04T05:59:16.259Z,95.64
2018-12-04T06:00:27.551Z,95.43
2018-12-04T06:04:17.092Z,96.20
2018-12-04T06:05:17.779Z,96.72
2018-12-04T06:06:28.356Z,96.61
2018-12-04T06:07:28.567Z,96.61
2018-12-04T06:09:52.957Z,97.23
2018-12-04T06:11:01.927Z,96.97
2018-12-04T06:11:49.081Z,96.76
2018-12-04T06:12:52.049Z,96.66
2018-12-04T06:13:58.594Z,96.86
2018-12-04T06:14:49.031Z,96.97
2018-12-04T06:15:49.888Z,97.17
2018-12-04T06:16:50.898Z,97.07
2018-12-04T06:19:08.424Z,96.55
2018-12-04T06:20:08.405Z,96.97
2018-12-04T06:21:10.246Z,96.55
2018-12-04T06:22:17.608Z,96.55
2018-12-04T06:23:09.943Z,96.66
2018-12-04T06:24:09.227Z,96.66
2018-12-04T06:25:09.228Z,96.14
2018-12-04T06:26:22.573Z,96.34
2018-12-04T06:27:09.058Z,96.66
2018-12-04T06:28:17.837Z,96.34
2018-12-04T06:30:31.444Z,96.49
2018-12-04T06:31:42.846Z,95.56
2018-12-04T06:32:32.260Z,95.77
2018-12-04T06:33:31.280Z,95.73
2018-12-04T06:34:31.263Z,96.34
2018-12-04T06:35:31.602Z,95.87
2018-12-04T06:36:41.411Z,96.39
2018-12-04T06:37:31.196Z,95.77
2018-12-04T06:38:32.148Z,96.19
2018-12-04T06:39:31.121Z,96.33
2018-12-04T06:40:31.091Z,96.75
2018-12-04T06:41:31.989Z,95.92
2018-12-04T06:42:31.071Z,95.77
2018-12-04T06:43:41.108Z,95.29
2018-12-04T06:44:31.241Z,95.50
2018-12-04T06:45:32.051Z,95.61
2018-12-04T06:46:31.968Z,95.19
2018-12-04T06:47:31.724Z,95.50
2018-12-04T06:48:31.021Z,95.50
2018-12-04T06:49:41.910Z,95.29
2018-12-04T06:50:31.789Z,95.29
2018-12-04T06:51:32.109Z,95.29
2018-12-04T06:52:31.096Z,95.81
2018-12-04T06:53:30.951Z,96.44
2018-12-04T06:54:31.064Z,96.44
2018-12-04T06:55:31.778Z,96.54
2018-12-04T06:56:30.917Z,96.27
2018-12-04T06:57:31.768Z,95.71
2018-12-04T06:58:31.902Z,95.03
2018-12-04T06:59:31.000Z,95.50
2018-12-04T07:00:32.071Z,95.44
2018-12-04T07:02:42.970Z,95.19
2018-12-04T07:03:43.307Z,95.19
2018-12-04T07:04:57.386Z,94.98
2018-12-04T07:05:42.700Z,95.24
2018-12-04T07:06:42.441Z,95.40
2018-12-04T07:07:42.473Z,95.75
2018-12-04T07:08:42.927Z,95.40
2018-12-04T07:09:42.436Z,95.86
2018-12-04T07:12:28.624Z,95.96
2018-12-04T07:14:50.339Z,95.75
2018-12-04T07:17:06.554Z,95.24
2018-12-04T07:18:12.638Z,95.86
2018-12-04T07:21:21.441Z,95.54
2018-12-04T07:23:34.425Z,95.44
2018-12-04T07:24:33.974Z,95.54
2018-12-04T07:25:46.385Z,95.44
2018-12-04T07:27:47.452Z,95.86
2018-12-04T07:30:10.583Z,95.96
2018-12-04T07:32:25.614Z,96.37
2018-12-04T07:37:29.385Z,95.86
2018-12-04T07:39:54.332Z,95.96
2018-12-04T07:42:58.357Z,95.86
2018-12-04T07:46:31.012Z,96.37
2018-12-04T07:47:17.135Z,96.37
2018-12-04T07:50:04.332Z,96.89
2018-12-04T07:54:09.713Z,97.10
2018-12-04T07:55:07.486Z,97.25
2018-12-04T07:56:16.633Z,97.45
2018-12-04T07:57:22.549Z,96.69
2018-12-04T07:58:06.633Z,96.94
2018-12-04T08:00:33.496Z,97.04
2018-12-04T08:02:46.451Z,97.25
2018-12-04T08:06:40.284Z,97.56
2018-12-04T08:12:12.840Z,96.83
2018-12-04T08:13:25.966Z,96.83
2018-12-04T08:14:32.409Z,96.83
2018-12-04T08:16:47.603Z,96.62
2018-12-04T08:18:52.706Z,97.19
2018-12-04T08:21:50.918Z,96.98
2018-12-04T08:22:55.729Z,97.39
2018-12-04T08:23:50.855Z,97.35
2018-12-04T08:25:02.820Z,97.35
2018-12-04T08:27:42.271Z,96.94
2018-12-04T08:28:51.232Z,97.04
2018-12-04T08:29:52.978Z,96.52
2018-12-04T08:30:42.720Z,96.52
2018-12-04T08:31:41.711Z,96.21
2018-12-04T08:32:55.493Z,96.31
2018-12-04T08:34:54.172Z,96.73
2018-12-04T08:36:04.693Z,96.31
2018-12-04T08:36:56.187Z,95.90
2018-12-04T08:37:54.123Z,96.01
2018-12-04T08:39:13.011Z,95.70
2018-12-04T08:43:08.971Z,96.83
2018-12-04T08:45:54.192Z,96.31
2018-12-04T08:46:53.963Z,96.52
2018-12-04T08:48:03.411Z,96.42
2018-12-04T08:51:53.435Z,94.49
2018-12-04T08:53:03.650Z,95.22
2018-12-04T08:53:54.336Z,94.81
2018-12-04T08:56:15.305Z,94.43
2018-12-04T08:57:24.769Z,94.85
2018-12-04T08:58:30.593Z,95.06
2018-12-04T09:03:06.268Z,95.64
2018-12-04T09:03:59.339Z,95.26
2018-12-04T09:05:09.341Z,95.47
2018-12-04T09:06:08.971Z,95.64
2018-12-04T09:07:15.153Z,95.57
2018-12-04T09:08:18.180Z,95.47
2018-12-04T09:08:57.155Z,95.26
2018-12-04T09:11:16.988Z,95.01
2018-12-04T09:13:31.746Z,95.37
2018-12-04T09:15:46.085Z,95.57
2018-12-04T09:16:56.267Z,95.68
2018-12-04T09:18:55.722Z,95.99
2018-12-04T09:19:57.361Z,96.51
2018-12-04T09:21:05.056Z,96.61
2018-12-04T09:21:57.303Z,96.57
2018-12-04T09:25:52.627Z,95.95
2018-12-04T09:26:54.537Z,95.22
2018-12-04T09:28:06.743Z,95.32
2018-12-04T09:29:03.816Z,95.53
2018-12-04T09:31:52.502Z,95.12
2018-12-04T09:34:56.853Z,94.60
2018-12-04T09:36:08.289Z,94.49
2018-12-04T09:37:06.220Z,94.39
2018-12-04T09:38:12.355Z,93.25
2018-12-04T09:39:08.533Z,95.01
2018-12-04T09:42:26.492Z,95.22
2018-12-04T09:45:54.469Z,95.64
2018-12-04T09:48:51.149Z,95.22
2018-12-04T09:51:10.189Z,95.22
2018-12-04T09:55:26.487Z,95.12
2018-12-04T09:56:38.727Z,95.01
2018-12-04T09:57:26.517Z,94.70
2018-12-04T09:58:26.689Z,93.77
2018-12-04T09:59:39.708Z,94.39
2018-12-04T10:01:56.585Z,94.49
2018-12-04T10:05:15.466Z,94.70
2018-12-04T10:06:16.246Z,93.87
2018-12-04T10:09:13.619Z,94.49
2018-12-04T10:10:22.668Z,94.70
2018-12-04T10:11:13.406Z,94.66
2018-12-04T10:12:13.636Z,94.70
2018-12-04T10:13:24.852Z,94.70
2018-12-04T10:18:21.052Z,94.76
2018-12-04T10:21:03.567Z,94.29
2018-12-04T10:22:12.748Z,93.73
2018-12-04T10:25:34.139Z,94.97
2018-12-04T10:26:43.125Z,94.91
2018-12-04T10:27:43.830Z,94.49
2018-12-04T10:28:34.034Z,95.12
2018-12-04T10:29:35.066Z,94.70
2018-12-04T10:30:43.768Z,95.18
2018-12-04T10:34:29.613Z,94.49
2018-12-04T10:35:23.272Z,94.18
2018-12-04T10:36:32.357Z,93.77
2018-12-04T10:42:06.522Z,94.49
2018-12-04T10:45:18.536Z,93.71
2018-12-04T10:47:27.320Z,93.75
2018-12-04T10:55:29.096Z,94.67
2018-12-04T10:58:30.872Z,96.02
2018-12-04T11:00:43.574Z,95.50
2018-12-04T11:02:52.019Z,95.19
2018-12-04T11:05:41.476Z,95.23
2018-12-04T11:08:42.573Z,96.12
2018-12-04T11:09:53.414Z,95.65
2018-12-04T11:10:54.148Z,95.86
2018-12-04T11:11:54.027Z,96.17
2018-12-04T11:12:53.861Z,95.96
2018-12-04T11:13:50.703Z,95.86
2018-12-04T11:14:50.851Z,95.75
2018-12-04T11:17:58.709Z,95.34
2018-12-04T11:19:55.482Z,95.03
2018-12-04T11:21:06.528Z,95.13
2018-12-04T11:22:05.239Z,95.23
2018-12-04T11:29:35.803Z,96.64
2018-12-04T11:30:34.748Z,96.48
2018-12-04T11:31:44.580Z,96.85
2018-12-04T11:32:33.736Z,96.95
2018-12-04T11:33:42.504Z,96.85
2018-12-04T11:34:50.479Z,97.16
2018-12-04T11:35:44.946Z,96.64
2018-12-04T11:36:45.492Z,96.44
2018-12-04T11:41:36.235Z,97.28
2018-12-04T11:42:45.799Z,97.12
2018-12-04T11:48:14.246Z,95.83
2018-12-04T11:50:24.723Z,95.62
2018-12-04T11:51:23.377Z,95.00
2018-12-04T11:53:37.403Z,94.95
2018-12-04T11:55:47.041Z,94.85
2018-12-04T11:58:00.666Z,95.20
2018-12-04T11:59:09.027Z,94.79
2018-12-04T11:59:59.624Z,94.89
2018-12-04T12:00:59.717Z,95.00
2018-12-04T12:02:32.850Z,95.00
2018-12-04T12:03:00.704Z,94.79
2018-12-04T12:04:11.875Z,94.89
2018-12-04T12:05:08.025Z,95.20
2018-12-04T12:11:01.559Z,94.94
2018-12-04T12:13:34.712Z,94.53
2018-12-04T12:14:35.694Z,94.84
2018-12-04T12:16:45.911Z,93.80
2018-12-04T12:17:46.773Z,94.42
2018-12-04T12:18:55.470Z,94.53
2018-12-04T12:19:56.889Z,94.89
2018-12-04T12:25:49.917Z,94.42
2018-12-04T12:26:59.748Z,94.84
2018-12-04T12:28:00.832Z,94.84
2018-12-04T12:28:49.862Z,94.94
2018-12-04T12:30:02.404Z,95.04
2018-12-04T12:34:36.758Z,95.10
2018-12-04T12:35:46.153Z,94.79
2018-12-04T12:36:46.636Z,95.04
2018-12-04T12:45:34.764Z,92.49
2018-12-04T12:48:11.693Z,91.14
2018-12-04T12:49:58.997Z,91.55
2018-12-04T12:51:09.228Z,91.91
2018-12-04T12:51:59.669Z,93.12
2018-12-04T12:53:07.151Z,92.28
2018-12-04T12:55:22.717Z,93.43
2018-12-04T12:59:39.299Z,93.12
2018-12-04T13:02:39.552Z,93.63
2018-12-04T13:05:02.267Z,93.70
2018-12-04T13:07:27.768Z,93.70
2018-12-04T13:08:37.887Z,93.80
2018-12-04T13:09:28.051Z,93.80
2018-12-04T13:10:38.811Z,93.90
